createdAt,value
2022-10-31T00:00:14.854Z,19.03
2022-10-31T00:01:46.378Z,18.95
2022-10-31T00:03:18.337Z,17.85
2022-10-31T00:04:49.720Z,20.81
2022-10-31T00:06:21.153Z,20.06
2022-10-31T00:07:52.732Z,18.88
2022-10-31T00:09:24.050Z,18.05
2022-10-31T00:10:55.417Z,19.12
2022-10-31T00:12:26.847Z,18.60
2022-10-31T00:13:58.233Z,21.89
2022-10-31T00:15:29.744Z,19.27
2022-10-31T00:17:03.290Z,18.23
2022-10-31T00:18:34.631Z,17.90
2022-10-31T00:20:05.990Z,15.30
2022-10-31T00:21:37.765Z,20.70
2022-10-31T00:23:09.112Z,20.10
2022-10-31T00:24:40.418Z,19.55
2022-10-31T00:26:12.377Z,18.45
2022-10-31T00:27:43.943Z,20.26
2022-10-31T00:29:15.374Z,19.73
2022-10-31T00:30:46.788Z,19.10
2022-10-31T00:32:18.160Z,21.19
2022-10-31T00:33:49.691Z,19.91
2022-10-31T00:35:21.156Z,20.09
2022-10-31T00:36:52.593Z,21.15
2022-10-31T00:38:24.495Z,20.55
2022-10-31T00:39:55.923Z,19.96
2022-10-31T00:41:27.880Z,21.50
2022-10-31T00:42:59.708Z,22.76
2022-10-31T00:44:31.268Z,26.04
2022-10-31T00:46:02.602Z,28.15
2022-10-31T00:47:33.958Z,27.89
2022-10-31T00:49:05.324Z,24.34
2022-10-31T00:50:36.718Z,24.29
2022-10-31T00:52:08.031Z,27.51
2022-10-31T00:53:39.369Z,24.25
2022-10-31T00:55:10.678Z,23.44
2022-10-31T00:56:42.011Z,22.76
2022-10-31T00:59:46.928Z,22.10
2022-10-31T01:01:18.679Z,21.94
2022-10-31T01:02:50.420Z,22.10
2022-10-31T01:04:21.755Z,23.36
2022-10-31T01:05:53.154Z,20.73
2022-10-31T01:07:24.687Z,23.95
2022-10-31T01:08:56.074Z,23.23
2022-10-31T01:10:27.526Z,24.31
2022-10-31T01:11:59.011Z,25.70
2022-10-31T01:13:30.529Z,21.61
2022-10-31T01:15:01.884Z,22.33
2022-10-31T01:16:33.323Z,27.13
2022-10-31T01:18:04.867Z,25.84
2022-10-31T01:19:36.593Z,24.31
2022-10-31T01:21:07.989Z,24.37
2022-10-31T01:22:39.336Z,22.10
2022-10-31T01:24:10.704Z,25.65
2022-10-31T01:25:42.572Z,24.19
2022-10-31T01:27:14.160Z,27.28
2022-10-31T01:28:45.538Z,25.80
2022-10-31T01:30:17.244Z,27.76
2022-10-31T01:31:48.655Z,25.98
2022-10-31T01:33:19.979Z,23.53
2022-10-31T01:34:51.420Z,24.68
2022-10-31T01:36:22.840Z,22.94
2022-10-31T01:37:54.266Z,24.57
2022-10-31T01:39:25.784Z,24.98
2022-10-31T01:40:57.151Z,24.10
2022-10-31T01:42:28.519Z,24.92
2022-10-31T01:43:59.975Z,24.58
2022-10-31T01:45:31.414Z,22.17
2022-10-31T01:47:02.814Z,22.11
2022-10-31T01:48:34.250Z,23.77
2022-10-31T01:50:05.860Z,24.33
2022-10-31T01:51:37.303Z,25.48
2022-10-31T01:53:08.807Z,28.42
2022-10-31T01:54:40.322Z,26.12
2022-10-31T01:56:11.635Z,24.37
2022-10-31T01:57:43.847Z,26.17
2022-10-31T01:59:15.265Z,25.37
2022-10-31T02:00:46.634Z,24.04
2022-10-31T02:02:18.220Z,24.93
2022-10-31T02:03:50.037Z,28.97
2022-10-31T02:05:21.581Z,27.12
2022-10-31T02:06:52.949Z,26.47
2022-10-31T02:08:24.510Z,24.43
2022-10-31T02:09:55.885Z,24.38
2022-10-31T02:11:27.249Z,26.75
2022-10-31T02:12:58.989Z,29.77
2022-10-31T02:14:30.663Z,26.50
2022-10-31T02:16:02.140Z,26.35
2022-10-31T02:17:34.299Z,24.17
2022-10-31T02:19:05.862Z,23.19
2022-10-31T02:20:37.671Z,25.75
2022-10-31T02:22:08.987Z,27.43
2022-10-31T02:23:40.453Z,28.24
2022-10-31T02:25:11.870Z,25.60
2022-10-31T02:26:43.279Z,28.12
2022-10-31T02:28:14.652Z,26.17
2022-10-31T02:29:45.988Z,22.32
2022-10-31T02:31:17.341Z,26.52
2022-10-31T02:32:48.714Z,24.13
2022-10-31T02:34:20.129Z,24.97
2022-10-31T02:35:51.773Z,26.48
2022-10-31T02:37:23.233Z,24.30
2022-10-31T02:38:54.762Z,26.30
2022-10-31T02:40:26.180Z,24.70
2022-10-31T02:41:57.641Z,22.50
2022-10-31T02:43:29.221Z,25.48
2022-10-31T02:45:01.637Z,26.02
2022-10-31T02:46:33.042Z,24.06
2022-10-31T02:48:04.518Z,25.79
2022-10-31T02:49:36.253Z,24.46
2022-10-31T02:51:07.716Z,24.61
2022-10-31T02:52:39.090Z,23.47
2022-10-31T02:54:10.670Z,27.02
2022-10-31T02:55:42.252Z,26.46
2022-10-31T02:57:13.764Z,27.29
2022-10-31T02:58:45.192Z,24.11
2022-10-31T03:00:16.849Z,22.83
2022-10-31T03:01:48.517Z,23.02
2022-10-31T03:03:20.044Z,24.39
2022-10-31T03:04:51.435Z,22.72
2022-10-31T03:06:22.738Z,24.96
2022-10-31T03:07:54.185Z,23.25
2022-10-31T03:09:25.553Z,23.30
2022-10-31T03:10:56.936Z,20.72
2022-10-31T03:12:28.439Z,23.14
2022-10-31T03:13:59.857Z,24.33
2022-10-31T03:15:31.228Z,24.57
2022-10-31T03:17:02.631Z,21.39
2022-10-31T03:18:34.056Z,21.34
2022-10-31T03:20:05.535Z,23.69
2022-10-31T03:21:37.009Z,23.73
2022-10-31T03:23:08.289Z,23.27
2022-10-31T03:24:39.595Z,24.44
2022-10-31T03:26:10.883Z,22.36
2022-10-31T03:27:42.189Z,25.17
2022-10-31T03:29:13.662Z,26.29
2022-10-31T03:30:44.977Z,23.49
2022-10-31T03:32:16.433Z,23.70
2022-10-31T03:33:48.147Z,25.29
2022-10-31T03:35:19.713Z,27.83
2022-10-31T03:36:51.013Z,22.50
2022-10-31T03:38:22.508Z,25.98
2022-10-31T03:39:53.806Z,24.30
2022-10-31T03:41:25.289Z,23.04
2022-10-31T03:42:57.031Z,23.16
2022-10-31T03:44:28.620Z,24.41
2022-10-31T03:46:00.007Z,23.98
2022-10-31T03:47:31.502Z,25.13
2022-10-31T03:49:03.941Z,21.78
2022-10-31T03:50:35.384Z,23.33
2022-10-31T03:52:06.863Z,24.19
2022-10-31T03:53:38.158Z,22.99
2022-10-31T03:55:09.514Z,23.53
2022-10-31T03:56:41.073Z,22.76
2022-10-31T03:58:12.550Z,23.80
2022-10-31T03:59:43.943Z,23.98
2022-10-31T04:01:15.344Z,24.70
2022-10-31T04:02:47.258Z,23.61
2022-10-31T04:04:18.781Z,22.13
2022-10-31T04:05:50.120Z,22.99
2022-10-31T04:07:21.510Z,23.54
2022-10-31T04:08:53.022Z,20.24
2022-10-31T04:10:28.665Z,24.02
2022-10-31T04:12:04.267Z,21.15
2022-10-31T04:13:35.596Z,22.73
2022-10-31T04:15:07.013Z,23.11
2022-10-31T04:16:38.461Z,23.23
2022-10-31T04:18:09.917Z,23.62
2022-10-31T04:19:41.385Z,24.45
2022-10-31T04:21:12.830Z,23.18
2022-10-31T04:22:44.338Z,23.34
2022-10-31T04:24:15.748Z,23.58
2022-10-31T04:25:47.234Z,26.24
2022-10-31T04:27:18.606Z,24.74
2022-10-31T04:28:50.002Z,22.04
2022-10-31T04:30:21.367Z,22.52
2022-10-31T04:31:52.684Z,20.86
2022-10-31T04:33:24.039Z,24.56
2022-10-31T04:34:55.420Z,21.77
2022-10-31T04:36:26.824Z,21.77
2022-10-31T04:37:58.473Z,22.05
2022-10-31T04:39:30.051Z,22.30
2022-10-31T04:41:01.375Z,22.60
2022-10-31T04:42:32.763Z,23.73
2022-10-31T04:44:04.126Z,21.85
2022-10-31T04:45:35.454Z,23.89
2022-10-31T04:47:06.788Z,24.44
2022-10-31T04:48:38.195Z,20.65
2022-10-31T04:50:09.653Z,21.63
2022-10-31T04:51:41.183Z,23.23
2022-10-31T04:53:12.556Z,23.68
2022-10-31T04:54:49.453Z,21.49
2022-10-31T04:56:20.947Z,26.00
2022-10-31T04:57:52.320Z,21.39
2022-10-31T04:59:23.909Z,19.85
2022-10-31T05:00:55.550Z,24.49
2022-10-31T05:02:26.968Z,22.45
2022-10-31T05:03:58.633Z,23.49
2022-10-31T05:05:29.949Z,27.64
2022-10-31T05:07:01.380Z,24.18
2022-10-31T05:08:32.811Z,22.49
2022-10-31T05:10:04.257Z,21.29
2022-10-31T05:11:36.089Z,20.49
2022-10-31T05:13:07.521Z,23.40
2022-10-31T05:14:40.008Z,24.19
2022-10-31T05:16:12.755Z,24.01
2022-10-31T05:17:44.230Z,23.93
2022-10-31T05:19:16.084Z,21.40
2022-10-31T05:20:47.602Z,21.96
2022-10-31T05:22:19.484Z,22.95
2022-10-31T05:23:50.909Z,23.98
2022-10-31T05:25:22.287Z,24.48
2022-10-31T05:26:53.783Z,22.93
2022-10-31T05:28:25.166Z,22.82
2022-10-31T05:29:56.838Z,24.36
2022-10-31T05:31:29.337Z,22.38
2022-10-31T05:33:01.041Z,24.41
2022-10-31T05:34:33.208Z,24.67
2022-10-31T05:36:04.794Z,23.15
2022-10-31T05:37:36.479Z,22.83
2022-10-31T05:39:07.846Z,24.24
2022-10-31T05:40:39.415Z,23.57
2022-10-31T05:42:10.805Z,24.20
2022-10-31T05:43:42.244Z,24.44
2022-10-31T05:45:13.763Z,23.42
2022-10-31T05:46:45.224Z,23.21
2022-10-31T05:48:16.857Z,24.16
2022-10-31T05:49:48.174Z,26.35
2022-10-31T05:51:20.031Z,23.61
2022-10-31T05:52:51.522Z,21.45
2022-10-31T05:54:22.934Z,26.74
2022-10-31T05:55:54.449Z,21.76
2022-10-31T05:57:25.814Z,23.94
2022-10-31T05:58:57.204Z,23.18
2022-10-31T06:00:28.536Z,22.45
2022-10-31T06:01:59.981Z,23.40
2022-10-31T06:03:31.412Z,23.63
2022-10-31T06:05:03.030Z,25.98
2022-10-31T06:06:34.497Z,23.06
2022-10-31T06:08:05.934Z,26.02
2022-10-31T06:09:42.422Z,24.36
2022-10-31T06:11:13.707Z,25.25
2022-10-31T06:12:45.142Z,24.95
2022-10-31T06:14:16.653Z,20.76
2022-10-31T06:15:48.229Z,23.80
2022-10-31T06:17:24.623Z,27.20
2022-10-31T06:18:56.023Z,24.75
2022-10-31T06:20:27.619Z,24.64
2022-10-31T06:21:58.991Z,28.03
2022-10-31T06:25:21.684Z,25.80
2022-10-31T06:26:53.058Z,25.56
2022-10-31T06:28:24.462Z,25.02
2022-10-31T06:29:55.836Z,29.69
2022-10-31T06:31:27.159Z,26.16
2022-10-31T06:32:58.802Z,26.09
2022-10-31T06:34:30.564Z,27.94
2022-10-31T06:36:02.040Z,28.12
2022-10-31T06:37:33.370Z,26.84
2022-10-31T06:39:04.726Z,26.60
2022-10-31T06:40:36.077Z,31.98
2022-10-31T06:42:07.732Z,27.16
2022-10-31T06:43:39.047Z,24.16
2022-10-31T06:45:10.340Z,25.79
2022-10-31T06:46:41.652Z,27.41
2022-10-31T06:48:17.900Z,26.75
2022-10-31T06:49:49.935Z,29.14
2022-10-31T06:51:36.872Z,26.48
2022-10-31T06:55:01.632Z,29.51
2022-10-31T06:56:55.305Z,29.99
2022-10-31T06:58:27.129Z,27.87
2022-10-31T06:59:58.733Z,27.50
2022-10-31T07:01:30.461Z,25.37
2022-10-31T07:03:02.277Z,28.47
2022-10-31T07:04:34.143Z,31.77
2022-10-31T07:06:05.825Z,27.69
2022-10-31T07:08:12.363Z,27.94
2022-10-31T07:09:43.701Z,26.31
2022-10-31T07:11:15.091Z,26.96
2022-10-31T07:12:46.823Z,30.33
2022-10-31T07:14:18.427Z,28.95
2022-10-31T07:15:49.973Z,27.48
2022-10-31T07:17:23.035Z,29.07
2022-10-31T07:19:01.199Z,27.01
2022-10-31T07:20:32.888Z,29.08
2022-10-31T07:22:04.554Z,29.33
2022-10-31T07:23:35.992Z,29.34
2022-10-31T07:25:07.472Z,28.63
2022-10-31T07:26:38.785Z,28.28
2022-10-31T07:28:10.161Z,29.04
2022-10-31T07:29:41.972Z,28.40
2022-10-31T07:31:13.538Z,26.83
2022-10-31T07:32:44.870Z,26.30
2022-10-31T07:34:16.169Z,28.26
2022-10-31T07:35:47.538Z,30.68
2022-10-31T07:37:18.964Z,26.77
2022-10-31T07:38:50.273Z,29.48
2022-10-31T07:40:21.569Z,29.72
2022-10-31T07:41:53.197Z,26.75
2022-10-31T07:43:29.600Z,27.99
2022-10-31T07:45:01.195Z,24.45
2022-10-31T07:46:32.597Z,25.84
2022-10-31T07:48:03.964Z,26.69
2022-10-31T07:49:35.279Z,26.48
2022-10-31T07:51:06.549Z,27.34
2022-10-31T07:53:04.138Z,26.53
2022-10-31T07:54:35.544Z,26.14
2022-10-31T07:56:07.179Z,23.84
2022-10-31T07:57:38.591Z,27.66
2022-10-31T07:59:09.969Z,23.47
2022-10-31T08:00:41.427Z,26.22
2022-10-31T08:02:12.949Z,26.99
2022-10-31T08:03:44.423Z,28.11
2022-10-31T08:05:15.797Z,26.79
2022-10-31T08:06:47.358Z,26.09
2022-10-31T08:08:18.772Z,29.56
2022-10-31T08:10:15.207Z,25.10
2022-10-31T08:11:46.500Z,27.74
2022-10-31T08:13:17.901Z,23.56
2022-10-31T08:14:49.334Z,24.48
2022-10-31T08:16:20.635Z,31.30
2022-10-31T08:18:12.094Z,27.38
2022-10-31T08:19:43.578Z,25.45
2022-10-31T08:21:15.152Z,28.14
2022-10-31T08:22:46.543Z,25.46
2022-10-31T08:24:17.935Z,27.15
2022-10-31T08:25:49.443Z,28.31
2022-10-31T08:27:20.841Z,26.55
2022-10-31T08:28:52.398Z,28.69
2022-10-31T08:30:23.763Z,28.75
2022-10-31T08:31:55.106Z,26.64
2022-10-31T08:33:26.471Z,26.90
2022-10-31T08:34:57.980Z,26.25
2022-10-31T08:36:29.445Z,26.62
2022-10-31T08:38:01.336Z,25.55
2022-10-31T08:39:32.902Z,27.08
2022-10-31T08:41:04.468Z,25.27
2022-10-31T08:42:35.777Z,32.54
2022-10-31T08:44:07.068Z,27.68
2022-10-31T08:45:38.494Z,29.05
2022-10-31T08:47:09.770Z,29.30
2022-10-31T08:48:41.110Z,28.24
2022-10-31T08:50:12.474Z,27.27
2022-10-31T08:51:43.900Z,29.22
2022-10-31T08:53:15.268Z,28.82
2022-10-31T08:54:46.649Z,27.41
2022-10-31T08:56:18.234Z,30.34
2022-10-31T08:57:54.690Z,30.89
2022-10-31T08:59:26.134Z,28.50
2022-10-31T09:00:57.619Z,30.17
2022-10-31T09:02:50.729Z,32.58
2022-10-31T09:04:23.199Z,32.76
2022-10-31T09:05:54.752Z,29.68
2022-10-31T09:07:26.268Z,31.69
2022-10-31T09:08:57.633Z,34.94
2022-10-31T09:10:29.034Z,32.60
2022-10-31T09:12:00.403Z,32.53
2022-10-31T09:13:32.095Z,34.79
2022-10-31T09:15:03.397Z,36.17
2022-10-31T09:16:34.758Z,35.76
2022-10-31T09:18:06.170Z,31.33
2022-10-31T09:19:37.524Z,30.08
2022-10-31T09:21:08.942Z,30.80
2022-10-31T09:22:40.317Z,31.78
2022-10-31T09:24:11.720Z,30.44
2022-10-31T09:25:49.142Z,30.49
2022-10-31T09:27:21.613Z,31.54
2022-10-31T09:28:53.140Z,34.00
2022-10-31T09:30:24.500Z,27.59
2022-10-31T09:31:55.919Z,33.10
2022-10-31T09:33:27.342Z,30.82
2022-10-31T09:34:58.731Z,27.70
2022-10-31T09:36:30.089Z,31.34
2022-10-31T09:38:02.020Z,31.22
2022-10-31T09:39:33.555Z,32.08
2022-10-31T09:41:05.269Z,31.42
2022-10-31T09:42:36.597Z,30.75
2022-10-31T09:44:07.908Z,30.25
2022-10-31T09:45:39.314Z,28.52
2022-10-31T09:47:11.159Z,30.94
2022-10-31T09:48:42.801Z,27.34
2022-10-31T09:50:14.153Z,30.95
2022-10-31T09:51:49.174Z,31.18
2022-10-31T09:53:24.130Z,30.02
2022-10-31T09:54:55.558Z,31.02
2022-10-31T09:56:32.182Z,29.06
2022-10-31T09:58:03.472Z,31.04
2022-10-31T09:59:35.170Z,29.08
2022-10-31T10:01:06.806Z,32.45
2022-10-31T10:02:38.698Z,26.93
2022-10-31T10:04:10.299Z,32.77
2022-10-31T10:05:41.656Z,32.75
2022-10-31T10:07:12.985Z,30.48
2022-10-31T10:08:44.425Z,31.87
2022-10-31T10:10:15.880Z,30.48
2022-10-31T10:11:47.433Z,34.15
2022-10-31T10:13:18.943Z,32.56
2022-10-31T10:14:50.398Z,29.82
2022-10-31T10:16:21.821Z,30.75
2022-10-31T10:17:53.200Z,29.67
2022-10-31T10:19:24.732Z,30.10
2022-10-31T10:20:56.096Z,29.69
2022-10-31T10:22:27.502Z,32.26
2022-10-31T10:23:58.836Z,34.10
2022-10-31T10:25:30.243Z,34.44
2022-10-31T10:27:01.667Z,31.22
2022-10-31T10:28:33.024Z,30.57
2022-10-31T10:30:04.341Z,31.19
2022-10-31T10:31:35.832Z,33.30
2022-10-31T10:33:07.227Z,31.50
2022-10-31T10:34:38.719Z,32.99
2022-10-31T10:36:10.059Z,31.69
2022-10-31T10:37:41.420Z,31.08
2022-10-31T10:39:12.746Z,37.88
2022-10-31T10:40:44.318Z,32.90
2022-10-31T10:42:15.771Z,31.23
2022-10-31T10:45:18.685Z,34.32
2022-10-31T10:46:50.091Z,31.55
2022-10-31T10:48:21.533Z,32.77
2022-10-31T10:49:52.871Z,33.64
2022-10-31T10:51:38.908Z,33.25
2022-10-31T10:53:23.600Z,30.75
2022-10-31T10:54:54.951Z,31.47
2022-10-31T10:56:27.298Z,32.97
2022-10-31T10:57:59.088Z,31.02
2022-10-31T10:59:35.781Z,32.61
2022-10-31T11:01:07.429Z,31.99
2022-10-31T11:02:39.121Z,27.55
2022-10-31T11:04:10.519Z,28.05
2022-10-31T11:05:41.964Z,29.32
2022-10-31T11:07:13.797Z,29.48
2022-10-31T11:08:45.198Z,30.43
2022-10-31T11:10:16.575Z,26.70
2022-10-31T11:11:47.930Z,29.22
2022-10-31T11:13:19.324Z,27.41
2022-10-31T11:14:50.701Z,26.45
2022-10-31T11:16:22.199Z,25.68
2022-10-31T11:17:53.566Z,29.89
2022-10-31T11:19:24.961Z,27.02
2022-10-31T11:20:56.344Z,28.00
2022-10-31T11:22:27.738Z,26.33
2022-10-31T11:23:59.129Z,22.74
2022-10-31T11:25:30.535Z,26.70
2022-10-31T11:27:01.931Z,28.71
2022-10-31T11:28:33.446Z,22.98
2022-10-31T11:30:04.978Z,23.60
2022-10-31T11:31:36.408Z,23.49
2022-10-31T11:33:07.761Z,21.62
2022-10-31T11:34:39.208Z,23.30
2022-10-31T11:36:10.633Z,22.34
2022-10-31T11:37:42.094Z,24.85
2022-10-31T11:39:13.693Z,23.33
2022-10-31T11:40:45.184Z,24.50
2022-10-31T11:42:16.618Z,24.06
2022-10-31T11:43:48.000Z,21.08
2022-10-31T11:45:19.544Z,23.79
2022-10-31T11:46:56.037Z,22.52
2022-10-31T11:48:27.440Z,20.40
2022-10-31T11:49:58.836Z,25.67
2022-10-31T11:51:30.362Z,22.40
2022-10-31T11:53:02.063Z,24.13
2022-10-31T11:54:33.482Z,21.52
2022-10-31T11:56:04.862Z,26.86
2022-10-31T11:57:36.349Z,21.68
2022-10-31T11:59:08.051Z,18.60
2022-10-31T12:00:39.609Z,20.39
2022-10-31T12:02:11.150Z,20.01
2022-10-31T12:03:42.734Z,21.33
2022-10-31T12:05:14.196Z,19.58
2022-10-31T12:06:45.630Z,18.59
2022-10-31T12:08:17.028Z,20.69
2022-10-31T12:09:48.561Z,21.48
2022-10-31T12:11:20.104Z,19.61
2022-10-31T12:12:51.513Z,19.37
2022-10-31T12:14:24.136Z,18.31
2022-10-31T12:16:32.461Z,18.43
2022-10-31T12:18:03.824Z,20.81
2022-10-31T12:19:35.269Z,20.53
2022-10-31T12:21:06.621Z,37.31
2022-10-31T12:22:38.028Z,42.26
2022-10-31T12:24:09.411Z,24.99
2022-10-31T12:25:41.084Z,24.62
2022-10-31T12:27:17.673Z,20.19
2022-10-31T12:28:59.184Z,20.71
2022-10-31T12:30:35.926Z,19.85
2022-10-31T12:34:34.276Z,20.22
2022-10-31T12:36:06.330Z,18.43
2022-10-31T12:37:39.113Z,19.12
2022-10-31T12:39:10.478Z,18.29
2022-10-31T12:40:42.016Z,15.28
2022-10-31T12:42:13.528Z,17.97
2022-10-31T12:43:44.944Z,20.19
2022-10-31T12:45:16.573Z,20.41
2022-10-31T12:46:48.079Z,18.81
2022-10-31T12:48:19.688Z,19.26
2022-10-31T12:49:51.104Z,18.70
2022-10-31T12:51:22.525Z,17.95
2022-10-31T12:52:54.253Z,22.20
2022-10-31T12:54:25.865Z,22.70
2022-10-31T12:55:57.258Z,22.01
2022-10-31T12:57:28.963Z,33.09
2022-10-31T12:59:00.403Z,41.50
2022-10-31T13:00:31.873Z,33.76
2022-10-31T13:02:03.557Z,30.33
2022-10-31T13:03:35.141Z,27.80
2022-10-31T13:05:06.716Z,25.31
2022-10-31T13:06:43.466Z,23.85
2022-10-31T13:08:16.140Z,22.76
2022-10-31T13:09:47.539Z,19.35
2022-10-31T13:11:18.950Z,20.97
2022-10-31T13:12:50.502Z,20.84
2022-10-31T13:14:21.948Z,23.57
2022-10-31T13:15:53.393Z,34.40
2022-10-31T13:17:29.906Z,39.11
2022-10-31T13:19:01.316Z,42.26
2022-10-31T13:20:32.726Z,41.16
2022-10-31T13:22:04.274Z,27.36
2022-10-31T13:23:50.448Z,23.14
2022-10-31T13:25:22.708Z,26.40
2022-10-31T13:26:54.188Z,25.23
2022-10-31T13:28:25.769Z,22.64
2022-10-31T13:29:57.293Z,24.10
2022-10-31T13:31:28.920Z,21.31
2022-10-31T13:33:00.790Z,18.22
2022-10-31T13:34:32.527Z,21.39
2022-10-31T13:36:04.083Z,22.12
2022-10-31T13:37:35.596Z,29.87
2022-10-31T13:39:07.034Z,56.75
2022-10-31T13:40:38.555Z,52.65
2022-10-31T13:42:09.952Z,35.85
2022-10-31T13:43:41.378Z,35.96
2022-10-31T13:45:13.043Z,62.33
2022-10-31T13:46:44.583Z,47.10
2022-10-31T13:48:16.333Z,25.90
2022-10-31T13:49:47.851Z,23.76
2022-10-31T13:51:19.250Z,21.88
2022-10-31T13:52:50.666Z,24.03
2022-10-31T13:54:22.246Z,23.08
2022-10-31T13:55:53.644Z,22.17
2022-10-31T13:57:27.129Z,24.37
2022-10-31T13:59:01.767Z,19.43
2022-10-31T14:00:33.198Z,23.42
2022-10-31T14:02:04.766Z,19.31
2022-10-31T14:04:03.284Z,21.59
2022-10-31T14:05:39.168Z,20.23
2022-10-31T14:07:10.647Z,18.36
2022-10-31T14:08:42.189Z,20.67
2022-10-31T14:10:13.567Z,20.70
2022-10-31T14:11:45.010Z,21.20
2022-10-31T14:13:16.585Z,24.22
2022-10-31T14:14:48.106Z,20.98
2022-10-31T14:16:19.645Z,21.60
2022-10-31T14:17:51.196Z,23.30
2022-10-31T14:19:22.816Z,20.08
2022-10-31T14:20:54.323Z,21.04
2022-10-31T14:22:25.789Z,19.42
2022-10-31T14:23:57.190Z,18.09
2022-10-31T14:25:28.605Z,19.26
2022-10-31T14:27:00.091Z,20.80
2022-10-31T14:28:31.485Z,16.14
2022-10-31T14:30:03.018Z,18.24
2022-10-31T14:31:34.485Z,16.41
2022-10-31T14:33:05.911Z,17.47
2022-10-31T14:34:37.647Z,17.93
2022-10-31T14:36:09.116Z,17.53
2022-10-31T14:37:40.795Z,20.27
2022-10-31T14:39:12.267Z,20.48
2022-10-31T14:40:44.843Z,19.88
2022-10-31T14:42:16.321Z,20.41
2022-10-31T14:43:47.844Z,18.96
2022-10-31T14:45:19.460Z,20.10
2022-10-31T14:46:51.050Z,17.44
2022-10-31T14:48:22.599Z,22.63
2022-10-31T14:49:54.161Z,20.80
2022-10-31T14:51:25.753Z,19.38
2022-10-31T14:52:57.496Z,19.34
2022-10-31T14:54:29.283Z,17.55
2022-10-31T14:56:21.969Z,17.26
2022-10-31T14:57:53.440Z,19.45
2022-10-31T14:59:24.892Z,19.10
2022-10-31T15:00:56.637Z,20.80
2022-10-31T15:02:28.651Z,20.84
2022-10-31T15:04:24.342Z,17.76
2022-10-31T15:06:26.471Z,19.42
2022-10-31T15:07:57.872Z,16.95
2022-10-31T15:09:29.471Z,18.18
2022-10-31T15:11:01.003Z,22.07
2022-10-31T15:12:32.427Z,18.42
2022-10-31T15:14:04.426Z,21.50
2022-10-31T15:15:36.047Z,18.80
2022-10-31T15:17:07.520Z,19.07
2022-10-31T15:18:38.913Z,17.46
2022-10-31T15:20:10.314Z,19.37
2022-10-31T15:23:38.042Z,17.46
2022-10-31T15:25:09.421Z,17.62
2022-10-31T15:26:40.971Z,18.42
2022-10-31T15:28:12.430Z,20.50
2022-10-31T15:29:43.861Z,20.21
2022-10-31T15:31:15.349Z,22.72
2022-10-31T15:32:57.213Z,18.67
2022-10-31T15:34:29.238Z,19.58
2022-10-31T15:36:00.648Z,21.22
2022-10-31T15:37:32.033Z,19.01
2022-10-31T15:39:03.469Z,22.01
2022-10-31T15:40:35.175Z,20.02
2022-10-31T15:42:06.544Z,18.24
2022-10-31T15:43:37.949Z,20.57
2022-10-31T15:45:10.521Z,19.42
2022-10-31T15:46:41.990Z,20.85
2022-10-31T15:48:13.345Z,23.32
2022-10-31T15:49:44.778Z,19.20
2022-10-31T15:51:16.217Z,21.91
2022-10-31T15:52:48.508Z,20.84
2022-10-31T15:54:20.206Z,18.98
2022-10-31T15:55:51.681Z,22.21
2022-10-31T15:57:23.072Z,20.49
2022-10-31T15:58:55.791Z,22.78
2022-10-31T16:00:27.233Z,20.83
2022-10-31T16:02:02.441Z,22.33
2022-10-31T16:03:34.384Z,20.51
2022-10-31T16:05:10.829Z,21.09
2022-10-31T16:06:42.432Z,19.82
2022-10-31T16:08:13.889Z,22.41
2022-10-31T16:09:50.363Z,20.59
2022-10-31T16:11:21.794Z,23.86
2022-10-31T16:12:53.209Z,21.74
2022-10-31T16:14:25.771Z,24.74
2022-10-31T16:16:21.249Z,22.09
2022-10-31T16:18:04.760Z,23.15
2022-10-31T16:19:36.173Z,19.42
2022-10-31T16:21:07.688Z,19.28
2022-10-31T16:22:39.178Z,20.93
2022-10-31T16:24:10.628Z,19.13
2022-10-31T16:25:42.038Z,19.27
2022-10-31T16:27:13.417Z,21.31
2022-10-31T16:28:48.796Z,21.21
2022-10-31T16:30:20.261Z,20.15
2022-10-31T16:31:51.801Z,17.57
2022-10-31T16:33:24.354Z,21.41
2022-10-31T16:34:55.726Z,24.56
2022-10-31T16:36:34.875Z,20.03
2022-10-31T16:38:17.704Z,19.86
2022-10-31T16:39:49.239Z,20.01
2022-10-31T16:41:20.668Z,24.33
2022-10-31T16:42:57.393Z,21.45
2022-10-31T16:44:28.975Z,24.06
2022-10-31T16:46:00.322Z,23.75
2022-10-31T16:47:31.788Z,20.42
2022-10-31T16:49:03.112Z,23.06
2022-10-31T16:50:34.505Z,24.04
2022-10-31T16:52:06.142Z,17.70
2022-10-31T16:53:39.656Z,17.97
2022-10-31T16:55:13.122Z,22.93
2022-10-31T16:56:44.543Z,17.03
2022-10-31T16:58:16.270Z,28.23
2022-10-31T16:59:47.849Z,17.63
2022-10-31T17:01:19.404Z,18.50
2022-10-31T17:02:50.824Z,25.82
2022-10-31T17:04:22.408Z,22.00
2022-10-31T17:05:53.956Z,19.23
2022-10-31T17:07:25.375Z,18.20
2022-10-31T17:08:57.063Z,16.11
2022-10-31T17:10:28.590Z,17.50
2022-10-31T17:12:00.059Z,19.15
2022-10-31T17:13:31.557Z,19.16
2022-10-31T17:15:03.206Z,21.26
2022-10-31T17:16:34.546Z,20.11
2022-10-31T17:18:05.960Z,19.85
2022-10-31T17:19:58.321Z,18.07
2022-10-31T17:21:29.917Z,20.26
2022-10-31T17:23:01.560Z,19.98
2022-10-31T17:24:33.548Z,21.52
2022-10-31T17:26:05.166Z,19.11
2022-10-31T17:28:36.796Z,16.76
2022-10-31T17:30:08.824Z,16.69
2022-10-31T17:31:40.285Z,16.00
2022-10-31T17:33:11.651Z,19.31
2022-10-31T17:34:43.020Z,17.80
2022-10-31T17:36:14.347Z,17.79
2022-10-31T17:37:45.724Z,14.34
2022-10-31T17:39:17.072Z,17.98
2022-10-31T17:42:36.587Z,14.26
2022-10-31T17:44:09.104Z,13.98
2022-10-31T17:45:41.451Z,15.14
2022-10-31T17:50:07.781Z,14.10
2022-10-31T17:52:14.553Z,15.40
2022-10-31T17:53:47.302Z,14.94
2022-10-31T17:55:19.602Z,15.01
2022-10-31T17:56:52.162Z,15.07
2022-10-31T17:58:24.782Z,13.55
2022-10-31T17:59:57.473Z,14.38
2022-10-31T18:01:29.576Z,15.14
2022-10-31T18:03:02.676Z,16.89
2022-10-31T18:04:35.652Z,17.43
2022-10-31T18:06:10.284Z,15.40
2022-10-31T18:07:43.254Z,15.54
2022-10-31T18:09:15.036Z,13.53
2022-10-31T18:10:46.439Z,16.32
2022-10-31T18:12:17.890Z,14.41
2022-10-31T18:13:51.641Z,14.02
2022-10-31T18:15:24.313Z,15.39
2022-10-31T18:16:57.661Z,14.23
2022-10-31T18:18:30.483Z,14.81
2022-10-31T18:20:03.412Z,17.60
2022-10-31T18:21:35.836Z,15.01
2022-10-31T18:23:07.951Z,16.22
2022-10-31T18:24:40.700Z,14.11
2022-10-31T18:26:13.124Z,16.22
2022-10-31T18:27:45.762Z,13.42
2022-10-31T18:29:19.625Z,13.83
2022-10-31T18:30:52.691Z,13.96
2022-10-31T18:32:25.223Z,14.50
2022-10-31T18:33:57.584Z,15.68
2022-10-31T18:35:30.076Z,13.23
2022-10-31T18:37:03.742Z,13.85
2022-10-31T18:38:36.127Z,12.22
2022-10-31T18:40:08.822Z,13.52
2022-10-31T18:41:43.126Z,13.92
2022-10-31T18:43:15.563Z,14.15
2022-10-31T18:44:47.964Z,13.78
2022-10-31T18:46:20.447Z,13.65
2022-10-31T18:47:53.714Z,18.46
2022-10-31T18:49:25.914Z,13.20
2022-10-31T18:50:59.216Z,12.87
2022-10-31T18:52:31.831Z,13.74
2022-10-31T18:54:05.002Z,14.30
2022-10-31T18:55:38.345Z,13.86
2022-10-31T18:57:10.504Z,11.74
2022-10-31T18:58:43.956Z,14.24
2022-10-31T19:00:16.290Z,13.57
2022-10-31T19:01:49.497Z,13.09
2022-10-31T19:03:25.987Z,14.30
2022-10-31T19:04:59.311Z,13.88
2022-10-31T19:06:31.651Z,12.57
2022-10-31T19:08:05.702Z,12.81
2022-10-31T19:10:02.084Z,13.76
2022-10-31T19:11:33.433Z,13.43
2022-10-31T19:13:04.896Z,14.20
2022-10-31T19:14:36.334Z,15.93
2022-10-31T19:16:07.923Z,16.41
2022-10-31T19:17:39.271Z,14.15
2022-10-31T19:19:10.883Z,14.04
2022-10-31T19:20:42.501Z,11.26
2022-10-31T19:22:13.825Z,15.07
2022-10-31T19:23:45.269Z,13.84
2022-10-31T19:25:17.111Z,14.57
2022-10-31T19:26:48.653Z,12.86
2022-10-31T19:28:20.381Z,16.12
2022-10-31T19:29:52.003Z,13.23
2022-10-31T19:31:23.556Z,14.06
2022-10-31T19:32:55.012Z,11.62
2022-10-31T19:34:26.506Z,16.04
2022-10-31T19:36:07.978Z,14.80
2022-10-31T19:37:39.353Z,14.19
2022-10-31T19:39:10.667Z,13.14
2022-10-31T19:40:42.503Z,13.81
2022-10-31T19:42:19.168Z,13.22
2022-10-31T19:43:50.734Z,15.37
2022-10-31T19:45:22.203Z,15.10
2022-10-31T19:46:54.344Z,14.87
2022-10-31T19:48:25.865Z,15.53
2022-10-31T19:49:57.321Z,11.62
2022-10-31T19:51:28.739Z,15.73
2022-10-31T19:53:00.173Z,13.67
2022-10-31T19:54:31.623Z,12.28
2022-10-31T19:56:03.120Z,11.89
2022-10-31T19:58:00.399Z,12.17
2022-10-31T19:59:38.170Z,11.64
2022-10-31T20:01:10.811Z,12.31
2022-10-31T20:02:42.344Z,13.81
2022-10-31T20:04:13.655Z,12.11
2022-10-31T20:05:45.143Z,12.13
2022-10-31T20:07:16.765Z,16.31